Time;durP1;ratioP1;P1;durP2;ratioP2;P2;SDS_P1;SDS_P2;PMS_P1;PMS_P2;Temp;Humidity;BMP_temperature;BMP_pressure;BME280_temperature;BME280_humidity;BME280_pressure;Samples;Min_cycle;Max_cycle;Signal;HPM_P1;HPM_P2
2024/03/27 00:00:48;;;;;;;53.00;28.80;;;;;;;2.85;100.00;100113.98;87404;281;138060;-81
2024/03/27 00:02:49;;;;;;;43.90;27.70;;;;;;;2.83;100.00;100111.61;87299;271;22615;-79
2024/03/27 00:04:49;;;;;;;53.10;29.50;;;;;;;2.79;100.00;100109.81;87445;266;137083;-83
2024/03/27 00:06:50;;;;;;;51.70;28.50;;;;;;;2.74;100.00;100110.11;87565;273;25137;-83
2024/03/27 00:08:52;;;;;;;48.70;29.40;;;;;;;2.71;100.00;100109.67;87247;274;137012;-79
2024/03/27 00:10:53;;;;;;;54.90;30.90;;;;;;;2.69;100.00;100105.30;87677;269;24177;-82
2024/03/27 00:12:54;;;;;;;47.40;29.90;;;;;;;2.68;100.00;100106.66;87335;279;136620;-84
2024/03/27 00:14:54;;;;;;;54.80;32.10;;;;;;;2.66;100.00;100109.30;87617;278;22579;-83
2024/03/27 00:16:55;;;;;;;54.30;32.50;;;;;;;2.64;100.00;100110.86;88120;269;137025;-86
2024/03/27 00:18:56;;;;;;;52.60;31.50;;;;;;;2.68;100.00;100112.78;88709;278;22574;-84
2024/03/27 00:20:56;;;;;;;55.80;33.30;;;;;;;2.70;100.00;100119.11;88549;281;138303;-82
2024/03/27 00:22:57;;;;;;;54.60;31.20;;;;;;;2.73;100.00;100119.86;88222;283;22606;-76
2024/03/27 00:24:58;;;;;;;42.60;28.80;;;;;;;2.76;100.00;100123.09;87581;279;137633;-78
2024/03/27 00:26:59;;;;;;;45.50;29.70;;;;;;;2.77;100.00;100122.67;87232;281;22571;-82
2024/03/27 00:29:00;;;;;;;47.40;30.10;;;;;;;2.76;100.00;100123.52;87292;275;137041;-76
2024/03/27 00:31:00;;;;;;;42.20;28.50;;;;;;;2.73;100.00;100127.20;87324;273;23026;-74
2024/03/27 00:33:02;;;;;;;50.50;30.40;;;;;;;2.73;100.00;100128.45;87338;274;136659;-79
2024/03/27 00:35:03;;;;;;;49.30;30.70;;;;;;;2.71;100.00;100134.47;87590;269;22572;-84
2024/03/27 00:37:06;;;;;;;44.60;29.70;;;;;;;2.67;100.00;100134.65;87578;281;137975;-84
2024/03/27 00:39:07;;;;;;;45.80;28.50;;;;;;;2.63;100.00;100139.00;87657;282;22579;-77
2024/03/27 00:41:08;;;;;;;43.50;27.50;;;;;;;2.59;100.00;100139.10;87631;271;137554;-84
2024/03/27 00:43:09;;;;;;;44.50;28.30;;;;;;;2.56;100.00;100140.63;87836;272;24177;-85
2024/03/27 00:45:10;;;;;;;41.50;27.70;;;;;;;2.54;100.00;100141.81;87602;273;136924;-75
2024/03/27 00:47:10;;;;;;;39.60;27.60;;;;;;;2.49;100.00;100145.16;87600;281;22567;-79
2024/03/27 00:49:12;;;;;;;41.30;27.40;;;;;;;2.44;100.00;100153.73;87502;273;137641;-79
2024/03/27 00:51:13;;;;;;;44.70;27.60;;;;;;;2.38;100.00;100157.09;87626;271;22577;-80
2024/03/27 00:53:14;;;;;;;42.10;27.10;;;;;;;2.33;100.00;100160.10;87229;271;137483;-78
2024/03/27 00:55:14;;;;;;;41.10;25.80;;;;;;;2.29;100.00;100163.48;87467;274;23633;-80
2024/03/27 00:57:15;;;;;;;40.40;26.10;;;;;;;2.27;100.00;100160.59;87724;272;138593;-80
2024/03/27 00:59:16;;;;;;;34.40;23.90;;;;;;;2.25;100.00;100152.15;87508;278;22508;-81
2024/03/27 01:01:17;;;;;;;41.10;26.30;;;;;;;2.24;100.00;100152.60;87295;278;136555;-82
2024/03/27 01:03:18;;;;;;;40.60;27.10;;;;;;;2.25;100.00;100159.37;87447;274;22524;-82
2024/03/27 01:05:19;;;;;;;39.40;25.10;;;;;;;2.23;100.00;100159.18;87448;274;137339;-82
2024/03/27 01:07:20;;;;;;;41.60;25.00;;;;;;;2.22;100.00;100157.02;87631;271;22570;-79
2024/03/27 01:09:20;;;;;;;38.30;24.20;;;;;;;2.22;100.00;100150.84;87382;282;137981;-83
2024/03/27 01:11:21;;;;;;;34.70;22.60;;;;;;;2.22;100.00;100150.81;87651;277;23936;-81
2024/03/27 01:13:22;;;;;;;33.00;21.60;;;;;;;2.23;100.00;100151.44;87463;274;136681;-83
2024/03/27 01:15:22;;;;;;;31.40;22.90;;;;;;;2.26;100.00;100149.40;87643;278;25097;-76
2024/03/27 01:17:23;;;;;;;35.40;23.00;;;;;;;2.29;100.00;100145.98;87782;275;136739;-80
2024/03/27 01:19:24;;;;;;;36.00;23.20;;;;;;;2.32;100.00;100146.27;88093;282;22563;-80
2024/03/27 01:21:25;;;;;;;37.70;23.40;;;;;;;2.34;100.00;100150.59;88356;271;136796;-80
2024/03/27 01:23:26;;;;;;;36.10;22.50;;;;;;;2.35;100.00;100149.61;88435;267;23969;-79
2024/03/27 01:25:26;;;;;;;41.00;24.40;;;;;;;2.35;100.00;100150.20;88226;269;136912;-75
2024/03/27 01:27:27;;;;;;;31.10;22.20;;;;;;;2.34;100.00;100155.58;89075;278;22602;-74
2024/03/27 01:29:28;;;;;;;31.30;21.70;;;;;;;2.32;100.00;100159.21;88760;270;136718;-83
2024/03/27 01:31:28;;;;;;;33.20;22.00;;;;;;;2.29;100.00;100161.59;88400;271;22537;-83
2024/03/27 01:33:29;;;;;;;35.20;22.80;;;;;;;2.25;100.00;100162.66;88862;275;136881;-80
2024/03/27 01:35:30;;;;;;;31.10;21.10;;;;;;;2.22;100.00;100166.83;88044;275;22671;-82
2024/03/27 01:37:31;;;;;;;30.40;21.20;;;;;;;2.18;100.00;100164.39;87771;271;137912;-79
2024/03/27 01:39:32;;;;;;;32.20;22.60;;;;;;;2.14;100.00;100167.86;87803;274;23879;-81
2024/03/27 01:41:33;;;;;;;32.30;22.80;;;;;;;2.12;100.00;100172.19;87794;271;137607;-77
2024/03/27 01:43:34;;;;;;;27.90;20.30;;;;;;;2.10;100.00;100172.94;87827;275;22511;-82
2024/03/27 01:45:36;;;;;;;34.60;23.90;;;;;;;2.08;100.00;100178.06;87965;271;136542;-82
2024/03/27 01:47:36;;;;;;;30.60;21.40;;;;;;;2.05;100.00;100179.89;88088;278;22526;-80
2024/03/27 01:49:39;;;;;;;33.50;21.40;;;;;;;2.02;100.00;100178.95;87348;273;137311;-78
2024/03/27 01:51:41;;;;;;;30.80;22.00;;;;;;;1.98;100.00;100181.08;87575;282;22526;-81
2024/03/27 01:53:42;;;;;;;32.00;21.00;;;;;;;1.95;100.00;100182.85;87506;281;137754;-80
2024/03/27 01:55:43;;;;;;;32.70;22.30;;;;;;;1.92;100.00;100184.67;87743;270;22621;-81
2024/03/27 01:57:45;;;;;;;34.20;21.00;;;;;;;1.88;100.00;100182.76;87514;270;137458;-81
2024/03/27 01:59:46;;;;;;;35.40;23.00;;;;;;;1.86;100.00;100184.52;87743;273;23418;-81
2024/03/27 02:01:49;;;;;;;32.70;21.90;;;;;;;1.86;100.00;100188.89;87380;275;136789;-80
2024/03/27 02:03:51;;;;;;;32.80;23.00;;;;;;;1.88;100.00;100191.95;87628;274;23741;-81
2024/03/27 02:05:52;;;;;;;35.70;22.30;;;;;;;1.87;100.00;100189.73;87583;270;137947;-80
2024/03/27 02:07:52;;;;;;;35.30;23.00;;;;;;;1.86;100.00;100194.73;87815;271;22551;-77
2024/03/27 02:09:53;;;;;;;31.80;21.90;;;;;;;1.84;100.00;100195.77;87618;269;137341;-78
2024/03/27 02:11:54;;;;;;;29.90;21.20;;;;;;;1.83;100.00;100195.19;87665;278;23777;-81
2024/03/27 02:13:55;;;;;;;36.90;22.80;;;;;;;1.81;100.00;100196.38;87446;269;136757;-80
2024/03/27 02:16:00;;;;;;;32.30;22.70;;;;;;;1.80;100.00;100190.70;87625;270;22689;-80
2024/03/27 02:18:00;;;;;;;32.90;21.90;;;;;;;1.78;100.00;100186.33;87918;278;137751;-81
2024/03/27 02:23:19;;;;;;;36.90;22.40;;;;;;;1.70;100.00;100190.69;87803;274;24017;-78
2024/03/27 02:25:26;;;;;;;33.70;22.80;;;;;;;1.68;100.00;100191.87;87516;274;138835;-81
2024/03/27 02:27:27;;;;;;;34.40;23.10;;;;;;;1.67;100.00;100196.05;87476;280;25207;-81
2024/03/27 02:29:28;;;;;;;36.30;23.30;;;;;;;1.64;100.00;100201.02;87518;281;137171;-79
2024/03/27 02:31:29;;;;;;;37.10;23.80;;;;;;;1.61;100.00;100201.95;87498;278;22593;-80
2024/03/27 02:33:30;;;;;;;34.50;24.70;;;;;;;1.60;100.00;100206.92;87534;278;136673;-79
2024/03/27 02:35:31;;;;;;;36.00;24.80;;;;;;;1.60;100.00;100207.17;87528;282;24159;-83
2024/03/27 02:37:32;;;;;;;34.90;24.70;;;;;;;1.58;100.00;100203.43;87415;278;136776;-78
2024/03/27 02:39:32;;;;;;;36.80;24.90;;;;;;;1.56;100.00;100206.06;87633;282;22715;-81
2024/03/27 02:41:34;;;;;;;32.60;23.70;;;;;;;1.57;100.00;100207.24;87493;274;137709;-80
2024/03/27 02:43:35;;;;;;;35.90;24.90;;;;;;;1.57;100.00;100207.02;87549;278;22547;-81
2024/03/27 02:45:35;;;;;;;35.20;24.70;;;;;;;1.57;100.00;100207.23;87527;270;137073;-81
2024/03/27 02:47:37;;;;;;;37.70;24.70;;;;;;;1.55;100.00;100205.50;87694;282;22558;-81
2024/03/27 02:49:37;;;;;;;33.70;23.60;;;;;;;1.52;100.00;100211.49;87796;277;136971;-79
2024/03/27 02:51:38;;;;;;;40.40;23.70;;;;;;;1.52;100.00;100208.92;87987;269;22566;-78
2024/03/27 02:53:39;;;;;;;39.50;25.10;;;;;;;1.51;100.00;100207.92;87533;274;138885;-75
2024/03/27 02:55:39;;;;;;;40.60;27.20;;;;;;;1.51;100.00;100206.65;87646;275;22537;-82
2024/03/27 02:57:40;;;;;;;43.30;26.90;;;;;;;1.51;100.00;100208.39;87789;277;140666;-82
2024/03/27 02:59:41;;;;;;;38.50;26.90;;;;;;;1.51;100.00;100211.61;87465;274;22578;-82
2024/03/27 03:01:42;;;;;;;41.60;26.60;;;;;;;1.48;100.00;100209.42;87174;275;138630;-83
2024/03/27 03:03:42;;;;;;;38.30;26.40;;;;;;;1.46;100.00;100210.30;87501;274;24782;-82
2024/03/27 03:05:43;;;;;;;38.30;27.90;;;;;;;1.44;100.00;100213.98;87335;274;136844;-81
2024/03/27 03:07:46;;;;;;;44.50;26.90;;;;;;;1.43;100.00;100216.81;87512;273;22569;-80
2024/03/27 03:09:47;;;;;;;39.60;25.50;;;;;;;1.42;100.00;100213.21;87496;281;137039;-80
2024/03/27 03:11:47;;;;;;;38.50;24.10;;;;;;;1.41;100.00;100217.05;87526;273;22648;-79
2024/03/27 03:13:48;;;;;;;38.70;24.80;;;;;;;1.38;100.00;100216.91;87436;272;138034;-81
2024/03/27 03:15:49;;;;;;;39.80;25.80;;;;;;;1.38;100.00;100216.96;87902;275;23117;-82
2024/03/27 03:17:50;;;;;;;36.90;24.70;;;;;;;1.39;100.00;100217.85;87914;278;136811;-79
2024/03/27 03:19:51;;;;;;;41.00;26.70;;;;;;;1.40;100.00;100218.54;88376;273;22668;-82
2024/03/27 03:21:52;;;;;;;41.20;26.10;;;;;;;1.40;100.00;100215.69;87724;273;139329;-80
2024/03/27 03:23:53;;;;;;;44.00;27.00;;;;;;;1.41;100.00;100213.02;88296;269;22575;-82
2024/03/27 03:25:53;;;;;;;42.40;27.80;;;;;;;1.43;100.00;100211.81;88591;269;136626;-81
2024/03/27 03:27:54;;;;;;;40.30;24.80;;;;;;;1.45;100.00;100209.64;88755;269;25095;-81
2024/03/27 03:29:55;;;;;;;38.10;23.50;;;;;;;1.48;100.00;100216.26;87517;282;138317;-82
2024/03/27 03:31:57;;;;;;;35.00;22.40;;;;;;;1.50;100.00;100221.14;87520;271;25190;-83
2024/03/27 03:33:58;;;;;;;38.10;22.50;;;;;;;1.50;100.00;100224.77;87392;271;136775;-84
2024/03/27 03:35:59;;;;;;;42.20;24.20;;;;;;;1.52;100.00;100224.81;87406;275;25190;-82
2024/03/27 03:38:00;;;;;;;37.90;24.70;;;;;;;1.55;100.00;100226.65;87546;271;138042;-85
2024/03/27 03:40:00;;;;;;;38.80;26.10;;;;;;;1.59;100.00;100223.11;87667;271;25340;-83
2024/03/27 03:42:01;;;;;;;38.60;22.40;;;;;;;1.66;100.00;100224.84;87430;269;136651;-83
2024/03/27 03:44:02;;;;;;;36.40;24.10;;;;;;;1.71;100.00;100224.52;87809;279;137565;-78
2024/03/27 03:46:03;;;;;;;34.90;22.10;;;;;;;1.77;100.00;100229.34;87850;271;22700;-80
2024/03/27 03:48:05;;;;;;;35.90;23.30;;;;;;;1.79;100.00;100233.52;87876;270;137350;-81
2024/03/27 03:50:06;;;;;;;38.90;24.20;;;;;;;1.78;100.00;100232.95;89111;267;23965;-82
2024/03/27 03:52:06;;;;;;;37.80;23.30;;;;;;;1.74;100.00;100230.58;88512;269;136977;-82
2024/03/27 03:54:07;;;;;;;35.20;23.30;;;;;;;1.70;100.00;100228.31;88044;274;22565;-81
2024/03/27 03:56:08;;;;;;;37.00;20.60;;;;;;;1.68;100.00;100236.93;88532;274;138245;-82
2024/03/27 03:58:12;;;;;;;33.60;22.90;;;;;;;1.66;100.00;100242.02;88506;266;24115;-79
2024/03/27 04:00:20;;;;;;;35.40;22.90;;;;;;;1.63;100.00;100245.62;89502;271;136906;-79
2024/03/27 04:02:20;;;;;;;35.30;22.90;;;;;;;1.59;100.00;100251.71;88039;274;23998;-76
2024/03/27 04:04:21;;;;;;;37.00;25.30;;;;;;;1.56;100.00;100255.85;87510;271;138264;-74
2024/03/27 04:06:22;;;;;;;37.10;22.80;;;;;;;1.52;100.00;100258.58;87493;280;22563;-76
2024/03/27 04:08:23;;;;;;;36.80;24.60;;;;;;;1.49;100.00;100256.77;87285;272;137121;-78
2024/03/27 04:10:24;;;;;;;36.50;24.20;;;;;;;1.47;100.00;100255.59;86815;280;948293;-79
2024/03/27 04:12:25;;;;;;;32.10;21.60;;;;;;;1.47;100.00;100259.55;87499;271;137070;-77
2024/03/27 04:14:25;;;;;;;34.40;22.40;;;;;;;1.63;100.00;100260.95;87438;271;22569;-76
2024/03/27 04:16:26;;;;;;;35.50;23.00;;;;;;;2.00;100.00;100254.65;87076;271;137589;-78
2024/03/27 04:18:28;;;;;;;35.90;21.70;;;;;;;2.54;100.00;100252.33;87278;266;25217;-75
2024/03/27 04:20:29;;;;;;;33.30;23.50;;;;;;;3.15;100.00;100251.31;87209;268;137210;-77
2024/03/27 04:22:31;;;;;;;35.10;23.00;;;;;;;3.74;100.00;100250.22;87031;272;22554;-77
2024/03/27 04:24:32;;;;;;;34.60;22.70;;;;;;;4.32;100.00;100247.42;86898;272;137831;-76
2024/03/27 04:26:33;;;;;;;34.20;23.20;;;;;;;4.92;100.00;100245.91;87021;271;22852;-74
2024/03/27 04:28:34;;;;;;;38.40;24.50;;;;;;;5.55;100.00;100247.08;87041;280;137125;-74
2024/03/27 04:30:36;;;;;;;35.10;22.70;;;;;;;6.17;100.00;100250.21;87170;270;25328;-75
2024/03/27 04:32:37;;;;;;;32.20;24.00;;;;;;;6.77;100.00;100254.10;87334;271;137727;-76
2024/03/27 04:34:38;;;;;;;33.00;22.90;;;;;;;7.33;100.00;100256.26;87120;268;22636;-78
2024/03/27 04:36:39;;;;;;;36.60;24.30;;;;;;;7.86;97.41;100261.33;86994;272;136492;-77
2024/03/27 04:38:40;;;;;;;31.70;22.50;;;;;;;8.36;92.12;100265.96;87549;267;22783;-75
2024/03/27 04:40:45;;;;;;;35.10;24.70;;;;;;;8.82;87.71;100266.42;87670;270;136916;-74
2024/03/27 04:42:46;;;;;;;32.80;24.10;;;;;;;9.26;83.96;100264.17;89097;270;22523;-74
2024/03/27 04:44:46;;;;;;;31.50;23.50;;;;;;;9.64;80.83;100256.18;89024;266;137419;-76
2024/03/27 04:46:47;;;;;;;31.70;25.00;;;;;;;9.99;77.68;100255.52;89137;270;22526;-74
2024/03/27 04:48:48;;;;;;;31.90;23.90;;;;;;;10.30;75.34;100249.89;88200;274;137372;-75
2024/03/27 04:50:49;;;;;;;32.60;23.30;;;;;;;10.63;73.57;100252.17;87253;270;26929;-77
2024/03/27 04:52:50;;;;;;;28.20;22.60;;;;;;;10.95;71.31;100249.36;87149;267;136697;-75
2024/03/27 04:54:50;;;;;;;32.40;24.00;;;;;;;11.19;68.96;100250.54;87111;273;22581;-71
2024/03/27 04:56:51;;;;;;;32.50;25.80;;;;;;;11.36;67.75;100253.52;87024;271;136382;-78
2024/03/27 04:58:52;;;;;;;32.60;25.00;;;;;;;11.54;66.90;100250.55;87114;279;22679;-77
2024/03/27 05:00:52;;;;;;;33.80;25.40;;;;;;;11.75;65.58;100243.27;87101;270;136367;-76
2024/03/27 05:02:53;;;;;;;37.30;25.20;;;;;;;11.96;64.85;100242.90;87216;270;24014;-76
2024/03/27 05:04:54;;;;;;;32.30;24.80;;;;;;;12.19;63.63;100241.09;87128;271;136474;-76
2024/03/27 05:06:56;;;;;;;32.90;23.80;;;;;;;12.42;62.90;100236.98;87182;271;23997;-78
2024/03/27 05:08:57;;;;;;;35.10;26.30;;;;;;;12.66;61.80;100238.48;87276;276;136618;-75
2024/03/27 05:10:58;;;;;;;33.30;27.30;;;;;;;12.88;60.74;100238.11;87045;271;22796;-75
2024/03/27 05:12:59;;;;;;;29.90;25.50;;;;;;;13.10;60.26;100232.94;87090;270;136396;-76
2024/03/27 05:14:59;;;;;;;39.10;29.90;;;;;;;13.36;59.48;100228.19;87043;271;26159;-70
2024/03/27 05:17:01;;;;;;;35.10;29.50;;;;;;;13.62;58.72;100222.61;87213;280;136696;-75
2024/03/27 05:19:02;;;;;;;42.40;32.00;;;;;;;13.87;58.24;100224.58;87222;278;22564;-74
2024/03/27 05:21:04;;;;;;;35.10;28.00;;;;;;;14.16;57.13;100226.66;88009;270;136996;-75
2024/03/27 05:23:04;;;;;;;40.30;29.00;;;;;;;14.41;56.25;100225.56;87211;278;22531;-77
2024/03/27 05:25:07;;;;;;;32.60;27.50;;;;;;;14.59;55.45;100227.00;87071;271;136993;-71
2024/03/27 05:27:08;;;;;;;35.50;28.00;;;;;;;14.77;54.98;100228.40;88422;276;23341;-77
2024/03/27 05:29:09;;;;;;;39.30;30.50;;;;;;;14.96;54.12;100229.03;87468;274;137652;-76
2024/03/27 05:31:10;;;;;;;36.00;28.20;;;;;;;15.14;53.17;100226.22;87737;269;25114;-73
2024/03/27 05:33:11;;;;;;;34.50;27.70;;;;;;;15.33;52.57;100226.83;87603;266;136888;-78
2024/03/27 05:35:12;;;;;;;37.90;29.50;;;;;;;15.50;51.86;100221.31;87607;270;23967;-79
2024/03/27 05:37:12;;;;;;;39.70;31.30;;;;;;;15.64;51.59;100220.13;87473;270;136194;-78
2024/03/27 05:39:13;;;;;;;37.70;29.90;;;;;;;15.80;51.09;100218.68;87571;270;25112;-74
2024/03/27 05:41:14;;;;;;;40.80;29.90;;;;;;;15.97;50.28;100221.73;87604;266;136468;-80
2024/03/27 05:43:15;;;;;;;35.10;28.80;;;;;;;16.13;50.14;100219.42;87682;271;22577;-80
2024/03/27 05:45:16;;;;;;;31.00;27.40;;;;;;;16.26;49.85;100225.19;87590;270;136526;-80
2024/03/27 05:47:16;;;;;;;33.80;28.30;;;;;;;16.41;49.46;100226.34;87239;271;22620;-80
2024/03/27 05:49:17;;;;;;;33.90;26.80;;;;;;;16.50;49.10;100229.43;87118;268;136523;-75
2024/03/27 05:51:19;;;;;;;35.70;28.50;;;;;;;16.49;48.77;100230.73;87060;268;22578;-78
2024/03/27 05:53:20;;;;;;;32.50;26.90;;;;;;;16.44;49.16;100231.89;87650;270;136109;-76
2024/03/27 05:55:21;;;;;;;33.90;28.00;;;;;;;16.55;48.79;100235.91;87417;272;25214;-76
2024/03/27 05:57:22;;;;;;;35.20;27.10;;;;;;;16.74;48.47;100241.33;87488;281;137646;-78
2024/03/27 05:59:23;;;;;;;29.10;25.50;;;;;;;16.88;47.89;100248.05;87187;271;22575;-79
2024/03/27 06:01:25;;;;;;;32.00;25.80;;;;;;;16.98;48.01;100250.05;87754;275;136243;-84
2024/03/27 06:03:25;;;;;;;31.70;25.20;;;;;;;16.97;47.95;100255.19;87864;268;22572;-79
2024/03/27 06:05:26;;;;;;;26.60;21.70;;;;;;;16.84;48.98;100254.44;87874;279;136485;-82
2024/03/27 06:07:27;;;;;;;27.00;20.60;;;;;;;16.66;48.91;100255.80;87695;271;25252;-77
2024/03/27 06:09:28;;;;;;;28.60;23.40;;;;;;;16.54;49.23;100251.64;87605;274;136316;-78
2024/03/27 06:11:29;;;;;;;27.60;22.10;;;;;;;16.51;48.86;100256.62;87516;268;22574;-77
2024/03/27 06:13:30;;;;;;;27.30;22.60;;;;;;;16.53;49.24;100257.26;87179;271;137965;-77
2024/03/27 06:15:31;;;;;;;20.70;15.90;;;;;;;16.64;49.22;100255.39;88176;266;22580;-83
2024/03/27 06:17:32;;;;;;;9.50;8.40;;;;;;;16.83;47.52;100261.36;89365;270;136220;-84
2024/03/27 06:19:33;;;;;;;9.40;8.40;;;;;;;17.05;45.12;100262.07;88764;266;22549;-80
2024/03/27 06:21:33;;;;;;;10.80;9.20;;;;;;;17.09;44.82;100264.97;87725;266;136048;-82
2024/03/27 06:23:34;;;;;;;10.20;8.80;;;;;;;17.03;44.37;100267.15;88183;271;22575;-85
2024/03/27 06:25:35;;;;;;;8.90;8.10;;;;;;;16.91;44.39;100266.96;88264;267;136286;-82
2024/03/27 06:27:36;;;;;;;5.90;5.40;;;;;;;16.99;44.69;100266.92;88140;271;22548;-81
2024/03/27 06:29:37;;;;;;;5.20;4.70;;;;;;;17.20;43.46;100266.52;87852;275;136380;-85
2024/03/27 06:31:38;;;;;;;5.80;3.40;;;;;;;17.26;41.84;100266.02;88651;266;22624;-86
2024/03/27 06:33:39;;;;;;;3.40;2.50;;;;;;;17.00;41.34;100265.96;88391;271;135854;-85
2024/03/27 06:35:40;;;;;;;4.70;2.60;;;;;;;16.82;41.98;100263.16;87842;267;23433;-86
2024/03/27 06:37:41;;;;;;;3.20;2.40;;;;;;;16.86;42.06;100266.34;87547;269;137196;-84
2024/03/27 06:39:42;;;;;;;2.60;2.40;;;;;;;16.92;41.98;100269.85;87769;263;22589;-86
2024/03/27 06:41:42;;;;;;;1.90;1.80;;;;;;;16.93;41.52;100265.02;88311;271;136212;-83
2024/03/27 06:43:46;;;;;;;2.80;2.40;;;;;;;16.91;41.54;100264.15;88109;266;22651;-82
2024/03/27 06:45:47;;;;;;;1.90;1.80;;;;;;;16.82;40.99;100258.40;88180;270;136588;-84
2024/03/27 06:47:48;;;;;;;5.00;1.50;;;;;;;16.69;41.05;100256.70;87788;267;23547;-86
2024/03/27 06:49:48;;;;;;;3.60;1.40;;;;;;;16.34;40.50;100258.05;87508;272;137315;-83
2024/03/27 06:51:50;;;;;;;2.50;1.80;;;;;;;15.80;41.07;100258.68;87630;268;22567;-81
2024/03/27 06:53:51;;;;;;;1.80;1.50;;;;;;;15.32;42.36;100260.91;87594;268;135766;-84
2024/03/27 06:55:51;;;;;;;1.90;1.20;;;;;;;14.88;43.43;100264.63;87669;272;22566;-79
2024/03/27 06:57:52;;;;;;;3.00;2.70;;;;;;;14.37;44.42;100263.21;87647;279;136057;-79
2024/03/27 06:59:53;;;;;;;4.20;3.40;;;;;;;13.87;46.71;100266.66;87781;271;23773;-77
2024/03/27 07:01:53;;;;;;;2.50;2.30;;;;;;;13.32;48.49;100267.73;87548;280;136482;-75
2024/03/27 07:03:55;;;;;;;2.00;1.80;;;;;;;12.79;49.07;100264.56;87668;271;25187;-81
2024/03/27 07:05:55;;;;;;;1.60;1.50;;;;;;;12.40;49.95;100269.21;87062;281;136186;-75
2024/03/27 07:07:56;;;;;;;3.60;1.50;;;;;;;12.07;50.66;100264.88;87155;272;22569;-76
2024/03/27 07:09:57;;;;;;;3.50;2.70;;;;;;;11.83;52.36;100269.27;87120;268;135716;-77
2024/03/27 07:11:58;;;;;;;3.70;2.20;;;;;;;11.60;53.99;100268.50;87262;270;23591;-79
2024/03/27 07:13:59;;;;;;;2.40;2.10;;;;;;;11.34;55.19;100273.02;87504;279;136159;-79
2024/03/27 07:16:00;;;;;;;3.60;1.50;;;;;;;11.12;55.37;100273.96;87550;274;22576;-76
2024/03/27 07:18:02;;;;;;;1.30;0.70;;;;;;;10.97;54.41;100271.65;87121;267;136064;-73
2024/03/27 07:20:04;;;;;;;0.50;0.50;;;;;;;10.82;53.75;100268.66;87481;269;137944;-71
2024/03/27 07:22:06;;;;;;;1.00;1.00;;;;;;;10.71;53.74;100265.37;87715;270;23350;-75
2024/03/27 07:24:06;;;;;;;1.80;1.00;;;;;;;10.64;53.71;100268.45;87562;274;135958;-73
2024/03/27 07:26:08;;;;;;;1.10;1.00;;;;;;;10.56;54.18;100265.05;87823;274;26181;-72
2024/03/27 07:28:09;;;;;;;1.60;1.50;;;;;;;10.49;55.11;100268.75;87062;266;136226;-73
2024/03/27 07:30:10;;;;;;;1.70;1.40;;;;;;;10.38;54.39;100275.21;87119;266;22571;-72
2024/03/27 07:32:11;;;;;;;1.90;1.20;;;;;;;10.30;53.24;100273.27;87114;277;136574;-73
2024/03/27 07:34:12;;;;;;;1.20;1.10;;;;;;;10.26;52.95;100268.08;87006;280;22583;-72
2024/03/27 07:36:13;;;;;;;3.00;1.40;;;;;;;10.22;52.59;100265.17;86984;267;138150;-73
2024/03/27 07:38:13;;;;;;;3.70;2.70;;;;;;;10.19;52.17;100273.56;87089;270;25089;-73
2024/03/27 07:40:14;;;;;;;5.80;2.40;;;;;;;10.15;52.13;100272.29;87032;271;136584;-72
2024/03/27 07:42:16;;;;;;;3.40;2.40;;;;;;;10.11;52.54;100267.25;87240;278;24011;-72
2024/03/27 07:44:18;;;;;;;3.30;3.00;;;;;;;10.09;52.91;100269.81;86950;272;135336;-71
2024/03/27 07:46:19;;;;;;;2.50;2.30;;;;;;;10.07;53.40;100266.55;87160;270;25558;-73
2024/03/27 07:48:19;;;;;;;3.30;2.20;;;;;;;10.05;53.59;100264.40;87013;266;136666;-73
2024/03/27 07:50:20;;;;;;;2.50;2.10;;;;;;;10.03;53.72;100262.02;87518;270;22630;-71
2024/03/27 07:52:21;;;;;;;6.50;3.40;;;;;;;9.96;54.15;100261.09;87622;271;137562;-70
2024/03/27 07:54:21;;;;;;;2.90;2.00;;;;;;;9.86;52.66;100250.19;87295;266;27476;-75
2024/03/27 07:56:24;;;;;;;3.10;2.90;;;;;;;9.75;52.15;100253.63;87537;267;137669;-73
2024/03/27 07:58:24;;;;;;;4.00;2.90;;;;;;;9.68;52.47;100250.95;87614;274;25309;-73
2024/03/27 08:00:25;;;;;;;3.00;2.10;;;;;;;9.65;52.17;100248.08;87793;278;136632;-75
2024/03/27 08:02:26;;;;;;;5.80;3.90;;;;;;;9.65;52.36;100254.67;87452;275;25361;-75
2024/03/27 08:04:27;;;;;;;3.00;1.70;;;;;;;9.65;52.55;100251.88;87530;270;135299;-72
2024/03/27 08:06:29;;;;;;;2.40;1.70;;;;;;;9.65;51.52;100252.17;87566;275;22519;-71
2024/03/27 08:08:29;;;;;;;3.30;1.80;;;;;;;9.65;51.57;100244.84;86993;272;137022;-71
2024/03/27 08:11:59;;;;;;;2.70;1.80;;;;;;;9.55;51.47;100240.45;85438;301;603585;-74
2024/03/27 08:14:05;;;;;;;4.30;1.80;;;;;;;9.56;50.72;100237.19;86613;285;134490;-73
2024/03/27 08:16:06;;;;;;;2.60;1.90;;;;;;;9.59;50.79;100245.55;87029;288;135580;-71
2024/03/27 08:18:07;;;;;;;3.70;1.90;;;;;;;9.59;51.16;100242.80;86756;288;22560;-73
2024/03/27 08:20:08;;;;;;;2.40;0.80;;;;;;;9.58;51.11;100239.05;86963;273;134850;-73
2024/03/27 08:22:11;;;;;;;3.50;1.00;;;;;;;9.55;50.32;100249.30;87193;277;22564;-72
2024/03/27 08:24:11;;;;;;;1.50;0.80;;;;;;;9.53;49.34;100247.59;86846;283;136153;-72
2024/03/27 08:26:12;;;;;;;2.30;0.50;;;;;;;9.51;49.77;100246.92;86650;274;877089;-71
2024/03/27 08:28:13;;;;;;;1.10;0.60;;;;;;;9.50;50.06;100252.35;87226;270;135613;-73
2024/03/27 08:30:14;;;;;;;0.90;0.70;;;;;;;9.48;48.40;100249.20;87118;277;25086;-72
2024/03/27 08:32:15;;;;;;;1.40;0.70;;;;;;;9.49;48.65;100237.49;86961;279;136066;-73
2024/03/27 08:34:16;;;;;;;1.80;1.00;;;;;;;9.49;49.95;100245.09;87367;280;22677;-72
2024/03/27 08:36:17;;;;;;;1.00;0.80;;;;;;;9.48;49.01;100243.95;87199;275;135854;-72
2024/03/27 08:38:18;;;;;;;2.70;0.80;;;;;;;9.44;48.12;100248.17;87235;272;22566;-72
2024/03/27 08:40:19;;;;;;;1.00;0.40;;;;;;;9.36;48.51;100244.45;87342;274;137291;-71
2024/03/27 08:42:20;;;;;;;1.80;0.80;;;;;;;9.29;47.56;100229.69;87418;282;23260;-72
2024/03/27 08:44:20;;;;;;;1.70;0.40;;;;;;;9.27;47.70;100239.13;87466;278;135754;-73
2024/03/27 08:46:21;;;;;;;1.50;1.00;;;;;;;9.27;48.69;100231.34;87231;280;24097;-69
2024/03/27 08:48:25;;;;;;;1.90;1.30;;;;;;;9.27;51.00;100230.70;86674;280;135493;-74
2024/03/27 08:50:26;;;;;;;1.40;1.00;;;;;;;9.26;50.50;100232.02;87300;270;22566;-72
2024/03/27 08:52:27;;;;;;;1.90;0.90;;;;;;;9.25;50.65;100230.34;87197;275;135833;-72
2024/03/27 08:54:27;;;;;;;2.20;0.90;;;;;;;9.25;50.95;100227.38;87345;276;22913;-73
2024/03/27 08:56:28;;;;;;;3.10;1.20;;;;;;;9.26;51.85;100227.64;87023;272;137220;-71
2024/03/27 08:58:30;;;;;;;1.50;1.40;;;;;;;9.27;53.06;100228.02;87422;276;22576;-70
2024/03/27 09:00:30;;;;;;;1.70;1.20;;;;;;;9.27;53.82;100219.64;86923;269;135597;-74
2024/03/27 09:02:31;;;;;;;4.00;0.80;;;;;;;9.29;53.60;100229.07;87496;273;22571;-73
2024/03/27 09:04:32;;;;;;;2.60;1.10;;;;;;;9.31;53.90;100218.14;87547;274;136234;-73
2024/03/27 09:06:32;;;;;;;1.20;1.00;;;;;;;9.34;53.62;100211.32;87292;271;22583;-71
2024/03/27 09:08:34;;;;;;;1.00;0.40;;;;;;;9.32;54.75;100213.91;87345;281;135377;-73
2024/03/27 09:10:35;;;;;;;1.20;0.70;;;;;;;9.32;55.08;100220.52;87317;269;22567;-76
2024/03/27 09:12:36;;;;;;;0.90;0.60;;;;;;;9.35;55.30;100211.40;87184;281;135560;-73
2024/03/27 09:14:37;;;;;;;2.10;0.60;;;;;;;9.40;54.85;100204.02;87545;273;22570;-75
2024/03/27 09:16:38;;;;;;;0.60;0.30;;;;;;;9.45;55.22;100200.52;87501;269;135190;-72
2024/03/27 09:18:39;;;;;;;4.30;0.70;;;;;;;9.53;55.58;100201.66;87165;269;24142;-73
2024/03/27 09:20:39;;;;;;;3.90;0.30;;;;;;;9.61;55.33;100206.55;87488;270;134463;-71
2024/03/27 09:22:40;;;;;;;0.90;0.40;;;;;;;9.65;53.02;100194.98;87561;271;25332;-71